sensor_id;sensor_type;location;lat;lon;timestamp;P1;durP1;ratioP1;P2;durP2;ratioP2
62880;SDS011;48969;49.934;8.596;2024-03-29T00:01:59;0.63;;;0.40;;
62880;SDS011;48969;49.934;8.596;2024-03-29T00:04:30;3.53;;;1.40;;
62880;SDS011;48969;49.934;8.596;2024-03-29T00:06:55;0.25;;;0.25;;
62880;SDS011;48969;49.934;8.596;2024-03-29T00:09:21;0.20;;;0.20;;
62880;SDS011;48969;49.934;8.596;2024-03-29T00:11:46;0.10;;;0.10;;
62880;SDS011;48969;49.934;8.596;2024-03-29T00:14:12;0.22;;;0.20;;
62880;SDS011;48969;49.934;8.596;2024-03-29T00:16:37;1.08;;;0.52;;
62880;SDS011;48969;49.934;8.596;2024-03-29T00:19:10;0.10;;;0.10;;
62880;SDS011;48969;49.934;8.596;2024-03-29T00:21:35;0.20;;;0.20;;
62880;SDS011;48969;49.934;8.596;2024-03-29T00:24:00;0.10;;;0.10;;
62880;SDS011;48969;49.934;8.596;2024-03-29T00:26:25;0.17;;;0.17;;
62880;SDS011;48969;49.934;8.596;2024-03-29T00:28:53;0.20;;;0.20;;
62880;SDS011;48969;49.934;8.596;2024-03-29T00:31:21;1.45;;;1.20;;
62880;SDS011;48969;49.934;8.596;2024-03-29T00:33:46;0.10;;;0.10;;
62880;SDS011;48969;49.934;8.596;2024-03-29T00:36:11;0.30;;;0.30;;
62880;SDS011;48969;49.934;8.596;2024-03-29T00:38:36;0.30;;;0.30;;
62880;SDS011;48969;49.934;8.596;2024-03-29T00:41:02;0.25;;;0.25;;
62880;SDS011;48969;49.934;8.596;2024-03-29T00:43:27;3.20;;;1.10;;
62880;SDS011;48969;49.934;8.596;2024-03-29T00:45:52;0.30;;;0.30;;
62880;SDS011;48969;49.934;8.596;2024-03-29T00:48:17;0.17;;;0.17;;
62880;SDS011;48969;49.934;8.596;2024-03-29T00:50:47;0.15;;;0.15;;
62880;SDS011;48969;49.934;8.596;2024-03-29T00:53:12;3.15;;;1.20;;
62880;SDS011;48969;49.934;8.596;2024-03-29T00:55:38;0.10;;;0.10;;
62880;SDS011;48969;49.934;8.596;2024-03-29T00:58:03;0.10;;;0.10;;
62880;SDS011;48969;49.934;8.596;2024-03-29T01:00:28;0.20;;;0.20;;
62880;SDS011;48969;49.934;8.596;2024-03-29T01:02:53;3.53;;;1.40;;
62880;SDS011;48969;49.934;8.596;2024-03-29T01:05:18;0.10;;;0.10;;
62880;SDS011;48969;49.934;8.596;2024-03-29T01:07:44;2.92;;;1.10;;
62880;SDS011;48969;49.934;8.596;2024-03-29T01:10:12;2.85;;;1.55;;
62880;SDS011;48969;49.934;8.596;2024-03-29T01:12:37;3.70;;;0.90;;
62880;SDS011;48969;49.934;8.596;2024-03-29T01:15:04;0.20;;;0.20;;
62880;SDS011;48969;49.934;8.596;2024-03-29T01:17:29;0.47;;;0.35;;
62880;SDS011;48969;49.934;8.596;2024-03-29T01:19:55;0.13;;;0.13;;
62880;SDS011;48969;49.934;8.596;2024-03-29T01:22:20;0.32;;;0.32;;
62880;SDS011;48969;49.934;8.596;2024-03-29T01:24:45;0.13;;;0.13;;
62880;SDS011;48969;49.934;8.596;2024-03-29T01:27:11;0.43;;;0.28;;
62880;SDS011;48969;49.934;8.596;2024-03-29T01:29:36;0.73;;;0.73;;
62880;SDS011;48969;49.934;8.596;2024-03-29T01:32:02;0.10;;;0.10;;
62880;SDS011;48969;49.934;8.596;2024-03-29T01:34:30;2.70;;;1.10;;
62880;SDS011;48969;49.934;8.596;2024-03-29T01:36:58;0.20;;;0.20;;
62880;SDS011;48969;49.934;8.596;2024-03-29T01:42:22;0.20;;;0.20;;
62880;SDS011;48969;49.934;8.596;2024-03-29T01:44:48;0.35;;;0.35;;
62880;SDS011;48969;49.934;8.596;2024-03-29T01:47:13;0.10;;;0.10;;
62880;SDS011;48969;49.934;8.596;2024-03-29T01:49:38;0.10;;;0.10;;
62880;SDS011;48969;49.934;8.596;2024-03-29T01:52:04;0.95;;;0.95;;
62880;SDS011;48969;49.934;8.596;2024-03-29T01:54:29;0.15;;;0.15;;
62880;SDS011;48969;49.934;8.596;2024-03-29T01:56:55;0.45;;;0.45;;
62880;SDS011;48969;49.934;8.596;2024-03-29T01:59:21;0.55;;;0.52;;
62880;SDS011;48969;49.934;8.596;2024-03-29T02:01:46;0.20;;;0.20;;
62880;SDS011;48969;49.934;8.596;2024-03-29T02:04:11;4.75;;;1.42;;
62880;SDS011;48969;49.934;8.596;2024-03-29T02:06:40;0.40;;;0.40;;
62880;SDS011;48969;49.934;8.596;2024-03-29T02:09:05;0.82;;;0.82;;
62880;SDS011;48969;49.934;8.596;2024-03-29T02:11:30;0.15;;;0.15;;
62880;SDS011;48969;49.934;8.596;2024-03-29T02:13:56;3.53;;;1.38;;
62880;SDS011;48969;49.934;8.596;2024-03-29T02:16:21;0.30;;;0.30;;
62880;SDS011;48969;49.934;8.596;2024-03-29T02:18:46;0.10;;;0.10;;
62880;SDS011;48969;49.934;8.596;2024-03-29T02:21:12;2.40;;;1.20;;
62880;SDS011;48969;49.934;8.596;2024-03-29T02:23:37;0.70;;;0.20;;
62880;SDS011;48969;49.934;8.596;2024-03-29T02:26:05;0.25;;;0.25;;
62880;SDS011;48969;49.934;8.596;2024-03-29T02:28:30;0.45;;;0.45;;
62880;SDS011;48969;49.934;8.596;2024-03-29T02:30:55;3.88;;;1.30;;
62880;SDS011;48969;49.934;8.596;2024-03-29T02:33:21;2.03;;;1.15;;
62880;SDS011;48969;49.934;8.596;2024-03-29T02:35:46;0.45;;;0.45;;
62880;SDS011;48969;49.934;8.596;2024-03-29T02:38:11;0.20;;;0.20;;
62880;SDS011;48969;49.934;8.596;2024-03-29T02:40:36;2.33;;;1.55;;
62880;SDS011;48969;49.934;8.596;2024-03-29T02:43:01;0.35;;;0.35;;
62880;SDS011;48969;49.934;8.596;2024-03-29T02:45:26;2.92;;;1.50;;
62880;SDS011;48969;49.934;8.596;2024-03-29T02:47:52;2.33;;;1.55;;
62880;SDS011;48969;49.934;8.596;2024-03-29T02:50:17;2.92;;;1.40;;
62880;SDS011;48969;49.934;8.596;2024-03-29T02:52:42;3.55;;;1.45;;
62880;SDS011;48969;49.934;8.596;2024-03-29T02:55:08;0.20;;;0.20;;
62880;SDS011;48969;49.934;8.596;2024-03-29T02:57:34;8.27;;;0.63;;
62880;SDS011;48969;49.934;8.596;2024-03-29T02:59:59;1.70;;;1.40;;
62880;SDS011;48969;49.934;8.596;2024-03-29T03:02:24;0.20;;;0.20;;
62880;SDS011;48969;49.934;8.596;2024-03-29T03:04:49;0.20;;;0.20;;
62880;SDS011;48969;49.934;8.596;2024-03-29T03:07:15;0.40;;;0.40;;
62880;SDS011;48969;49.934;8.596;2024-03-29T03:09:58;0.10;;;0.10;;
62880;SDS011;48969;49.934;8.596;2024-03-29T03:12:43;5.38;;;1.23;;
62880;SDS011;48969;49.934;8.596;2024-03-29T03:15:08;0.55;;;0.55;;
62880;SDS011;48969;49.934;8.596;2024-03-29T03:17:33;0.20;;;0.20;;
62880;SDS011;48969;49.934;8.596;2024-03-29T03:19:58;0.20;;;0.20;;
62880;SDS011;48969;49.934;8.596;2024-03-29T03:22:24;4.43;;;1.57;;
62880;SDS011;48969;49.934;8.596;2024-03-29T03:24:49;2.88;;;1.50;;
62880;SDS011;48969;49.934;8.596;2024-03-29T03:27:14;0.20;;;0.20;;
62880;SDS011;48969;49.934;8.596;2024-03-29T03:29:40;0.38;;;0.38;;
62880;SDS011;48969;49.934;8.596;2024-03-29T03:32:05;5.13;;;1.70;;
62880;SDS011;48969;49.934;8.596;2024-03-29T03:34:30;0.10;;;0.10;;
62880;SDS011;48969;49.934;8.596;2024-03-29T03:36:55;3.17;;;1.50;;
62880;SDS011;48969;49.934;8.596;2024-03-29T03:39:21;0.30;;;0.30;;
62880;SDS011;48969;49.934;8.596;2024-03-29T03:41:47;0.10;;;0.10;;
62880;SDS011;48969;49.934;8.596;2024-03-29T03:44:12;0.30;;;0.30;;
62880;SDS011;48969;49.934;8.596;2024-03-29T03:46:37;0.32;;;0.20;;
62880;SDS011;48969;49.934;8.596;2024-03-29T03:49:02;0.20;;;0.20;;
62880;SDS011;48969;49.934;8.596;2024-03-29T03:51:27;4.57;;;1.65;;
62880;SDS011;48969;49.934;8.596;2024-03-29T03:53:52;3.78;;;1.52;;
62880;SDS011;48969;49.934;8.596;2024-03-29T03:56:18;0.20;;;0.20;;
62880;SDS011;48969;49.934;8.596;2024-03-29T03:58:44;0.20;;;0.20;;
62880;SDS011;48969;49.934;8.596;2024-03-29T04:01:09;0.20;;;0.20;;
62880;SDS011;48969;49.934;8.596;2024-03-29T04:03:34;0.47;;;0.47;;
62880;SDS011;48969;49.934;8.596;2024-03-29T04:06:02;0.30;;;0.30;;
62880;SDS011;48969;49.934;8.596;2024-03-29T04:08:27;0.20;;;0.20;;
62880;SDS011;48969;49.934;8.596;2024-03-29T04:10:52;2.65;;;1.50;;
62880;SDS011;48969;49.934;8.596;2024-03-29T04:13:18;0.65;;;0.50;;
62880;SDS011;48969;49.934;8.596;2024-03-29T04:15:43;2.25;;;1.13;;
62880;SDS011;48969;49.934;8.596;2024-03-29T04:18:08;1.35;;;0.63;;
62880;SDS011;48969;49.934;8.596;2024-03-29T04:20:34;0.10;;;0.10;;
62880;SDS011;48969;49.934;8.596;2024-03-29T04:22:59;0.73;;;0.73;;
62880;SDS011;48969;49.934;8.596;2024-03-29T04:25:24;0.20;;;0.20;;
62880;SDS011;48969;49.934;8.596;2024-03-29T04:27:49;0.38;;;0.30;;
62880;SDS011;48969;49.934;8.596;2024-03-29T04:30:14;4.18;;;1.33;;
62880;SDS011;48969;49.934;8.596;2024-03-29T04:32:39;0.20;;;0.20;;
62880;SDS011;48969;49.934;8.596;2024-03-29T04:35:05;0.30;;;0.30;;
62880;SDS011;48969;49.934;8.596;2024-03-29T04:37:30;0.50;;;0.35;;
62880;SDS011;48969;49.934;8.596;2024-03-29T04:39:55;0.30;;;0.30;;
62880;SDS011;48969;49.934;8.596;2024-03-29T04:42:20;2.60;;;1.23;;
62880;SDS011;48969;49.934;8.596;2024-03-29T04:44:45;0.30;;;0.30;;
62880;SDS011;48969;49.934;8.596;2024-03-29T04:47:10;0.70;;;0.30;;
62880;SDS011;48969;49.934;8.596;2024-03-29T04:49:36;3.75;;;1.42;;
62880;SDS011;48969;49.934;8.596;2024-03-29T04:52:07;0.20;;;0.20;;
62880;SDS011;48969;49.934;8.596;2024-03-29T04:54:32;2.53;;;1.50;;
62880;SDS011;48969;49.934;8.596;2024-03-29T04:56:58;0.60;;;0.40;;
62880;SDS011;48969;49.934;8.596;2024-03-29T04:59:24;0.20;;;0.20;;
62880;SDS011;48969;49.934;8.596;2024-03-29T05:01:49;1.35;;;1.05;;
62880;SDS011;48969;49.934;8.596;2024-03-29T05:04:18;0.20;;;0.20;;
62880;SDS011;48969;49.934;8.596;2024-03-29T05:06:50;0.40;;;0.40;;
62880;SDS011;48969;49.934;8.596;2024-03-29T05:09:15;0.20;;;0.20;;
62880;SDS011;48969;49.934;8.596;2024-03-29T05:11:40;2.40;;;1.40;;
62880;SDS011;48969;49.934;8.596;2024-03-29T05:14:05;0.20;;;0.20;;
62880;SDS011;48969;49.934;8.596;2024-03-29T05:16:30;0.85;;;0.57;;
62880;SDS011;48969;49.934;8.596;2024-03-29T05:18:57;0.20;;;0.20;;
62880;SDS011;48969;49.934;8.596;2024-03-29T05:21:22;1.07;;;1.07;;
62880;SDS011;48969;49.934;8.596;2024-03-29T05:23:47;0.27;;;0.27;;
62880;SDS011;48969;49.934;8.596;2024-03-29T05:26:12;3.25;;;1.88;;
62880;SDS011;48969;49.934;8.596;2024-03-29T05:28:37;0.90;;;0.20;;
62880;SDS011;48969;49.934;8.596;2024-03-29T05:31:11;0.10;;;0.10;;
62880;SDS011;48969;49.934;8.596;2024-03-29T05:33:36;3.10;;;1.60;;
62880;SDS011;48969;49.934;8.596;2024-03-29T05:36:02;0.47;;;0.47;;
62880;SDS011;48969;49.934;8.596;2024-03-29T05:38:29;2.47;;;1.52;;
62880;SDS011;48969;49.934;8.596;2024-03-29T05:40:55;0.10;;;0.10;;
62880;SDS011;48969;49.934;8.596;2024-03-29T05:43:20;0.30;;;0.30;;
62880;SDS011;48969;49.934;8.596;2024-03-29T05:45:45;0.20;;;0.20;;
62880;SDS011;48969;49.934;8.596;2024-03-29T05:48:10;0.20;;;0.20;;
62880;SDS011;48969;49.934;8.596;2024-03-29T05:50:35;0.15;;;0.15;;
62880;SDS011;48969;49.934;8.596;2024-03-29T05:53:00;3.60;;;1.75;;
62880;SDS011;48969;49.934;8.596;2024-03-29T05:55:26;0.52;;;0.52;;
62880;SDS011;48969;49.934;8.596;2024-03-29T05:57:51;1.75;;;1.15;;
62880;SDS011;48969;49.934;8.596;2024-03-29T06:00:16;0.30;;;0.30;;
62880;SDS011;48969;49.934;8.596;2024-03-29T06:02:42;0.13;;;0.13;;
62880;SDS011;48969;49.934;8.596;2024-03-29T06:05:07;0.25;;;0.25;;
62880;SDS011;48969;49.934;8.596;2024-03-29T06:07:33;2.70;;;1.05;;
62880;SDS011;48969;49.934;8.596;2024-03-29T06:09:59;3.10;;;1.38;;
62880;SDS011;48969;49.934;8.596;2024-03-29T06:12:26;3.08;;;1.40;;
62880;SDS011;48969;49.934;8.596;2024-03-29T06:14:51;0.30;;;0.30;;
62880;SDS011;48969;49.934;8.596;2024-03-29T06:17:35;0.10;;;0.10;;
62880;SDS011;48969;49.934;8.596;2024-03-29T06:20:02;1.40;;;1.10;;
62880;SDS011;48969;49.934;8.596;2024-03-29T06:22:29;1.35;;;1.23;;
62880;SDS011;48969;49.934;8.596;2024-03-29T06:24:55;0.13;;;0.13;;
62880;SDS011;48969;49.934;8.596;2024-03-29T06:27:23;2.83;;;1.13;;
62880;SDS011;48969;49.934;8.596;2024-03-29T06:29:49;2.50;;;1.05;;
62880;SDS011;48969;49.934;8.596;2024-03-29T06:32:14;0.38;;;0.38;;
62880;SDS011;48969;49.934;8.596;2024-03-29T06:34:41;0.20;;;0.20;;
62880;SDS011;48969;49.934;8.596;2024-03-29T06:37:06;3.37;;;1.80;;
62880;SDS011;48969;49.934;8.596;2024-03-29T06:39:32;0.60;;;0.60;;
62880;SDS011;48969;49.934;8.596;2024-03-29T06:41:57;3.00;;;2.10;;
62880;SDS011;48969;49.934;8.596;2024-03-29T06:44:23;3.60;;;2.42;;
62880;SDS011;48969;49.934;8.596;2024-03-29T06:46:49;5.50;;;3.60;;
62880;SDS011;48969;49.934;8.596;2024-03-29T06:49:14;1.55;;;0.95;;
62880;SDS011;48969;49.934;8.596;2024-03-29T06:51:40;1.65;;;0.65;;
62880;SDS011;48969;49.934;8.596;2024-03-29T06:54:05;0.73;;;0.53;;
62880;SDS011;48969;49.934;8.596;2024-03-29T06:56:30;4.93;;;3.03;;
62880;SDS011;48969;49.934;8.596;2024-03-29T06:58:56;4.72;;;2.60;;
62880;SDS011;48969;49.934;8.596;2024-03-29T07:01:21;1.60;;;0.50;;
62880;SDS011;48969;49.934;8.596;2024-03-29T07:03:46;3.15;;;1.50;;
62880;SDS011;48969;49.934;8.596;2024-03-29T07:06:11;2.65;;;1.60;;
62880;SDS011;48969;49.934;8.596;2024-03-29T07:08:37;2.80;;;1.50;;
62880;SDS011;48969;49.934;8.596;2024-03-29T07:11:02;2.35;;;1.52;;
62880;SDS011;48969;49.934;8.596;2024-03-29T07:13:28;3.42;;;2.17;;
62880;SDS011;48969;49.934;8.596;2024-03-29T07:15:54;0.20;;;0.20;;
62880;SDS011;48969;49.934;8.596;2024-03-29T07:18:19;3.38;;;1.48;;
62880;SDS011;48969;49.934;8.596;2024-03-29T07:20:44;1.65;;;1.27;;
62880;SDS011;48969;49.934;8.596;2024-03-29T07:23:09;3.10;;;1.33;;
62880;SDS011;48969;49.934;8.596;2024-03-29T07:25:36;3.40;;;1.20;;
62880;SDS011;48969;49.934;8.596;2024-03-29T07:28:01;0.30;;;0.30;;
62880;SDS011;48969;49.934;8.596;2024-03-29T07:30:27;1.63;;;1.25;;
62880;SDS011;48969;49.934;8.596;2024-03-29T07:32:53;2.80;;;1.48;;
62880;SDS011;48969;49.934;8.596;2024-03-29T07:35:18;2.05;;;1.25;;
62880;SDS011;48969;49.934;8.596;2024-03-29T07:37:43;2.97;;;1.23;;
62880;SDS011;48969;49.934;8.596;2024-03-29T07:40:13;2.50;;;1.52;;
62880;SDS011;48969;49.934;8.596;2024-03-29T07:42:38;0.10;;;0.10;;
62880;SDS011;48969;49.934;8.596;2024-03-29T07:45:03;2.95;;;1.60;;
62880;SDS011;48969;49.934;8.596;2024-03-29T07:47:29;2.67;;;1.13;;
62880;SDS011;48969;49.934;8.596;2024-03-29T07:49:54;3.17;;;1.30;;
62880;SDS011;48969;49.934;8.596;2024-03-29T07:52:19;0.20;;;0.20;;
62880;SDS011;48969;49.934;8.596;2024-03-29T07:54:46;2.33;;;1.30;;
62880;SDS011;48969;49.934;8.596;2024-03-29T07:57:11;2.80;;;1.40;;
62880;SDS011;48969;49.934;8.596;2024-03-29T07:59:39;0.38;;;0.38;;
62880;SDS011;48969;49.934;8.596;2024-03-29T08:02:05;2.47;;;1.45;;
62880;SDS011;48969;49.934;8.596;2024-03-29T08:04:30;3.05;;;1.60;;
62880;SDS011;48969;49.934;8.596;2024-03-29T08:06:55;0.20;;;0.20;;
62880;SDS011;48969;49.934;8.596;2024-03-29T08:09:20;0.10;;;0.10;;
62880;SDS011;48969;49.934;8.596;2024-03-29T08:11:45;1.73;;;1.30;;
62880;SDS011;48969;49.934;8.596;2024-03-29T08:14:10;3.45;;;1.60;;
62880;SDS011;48969;49.934;8.596;2024-03-29T08:16:36;1.20;;;0.93;;
62880;SDS011;48969;49.934;8.596;2024-03-29T08:19:01;4.30;;;1.70;;
62880;SDS011;48969;49.934;8.596;2024-03-29T08:21:27;4.10;;;1.77;;
62880;SDS011;48969;49.934;8.596;2024-03-29T08:23:52;0.40;;;0.40;;
62880;SDS011;48969;49.934;8.596;2024-03-29T08:26:20;3.97;;;1.40;;
62880;SDS011;48969;49.934;8.596;2024-03-29T08:28:45;3.25;;;2.13;;
62880;SDS011;48969;49.934;8.596;2024-03-29T08:31:11;0.30;;;0.30;;
62880;SDS011;48969;49.934;8.596;2024-03-29T08:33:36;4.07;;;1.80;;
62880;SDS011;48969;49.934;8.596;2024-03-29T08:36:05;3.03;;;2.00;;
62880;SDS011;48969;49.934;8.596;2024-03-29T08:38:30;4.47;;;2.28;;
62880;SDS011;48969;49.934;8.596;2024-03-29T08:40:56;3.60;;;2.35;;
62880;SDS011;48969;49.934;8.596;2024-03-29T08:43:21;3.85;;;2.03;;
62880;SDS011;48969;49.934;8.596;2024-03-29T08:45:46;4.57;;;2.00;;
62880;SDS011;48969;49.934;8.596;2024-03-29T08:48:12;5.32;;;2.08;;
62880;SDS011;48969;49.934;8.596;2024-03-29T08:50:37;3.35;;;1.95;;
62880;SDS011;48969;49.934;8.596;2024-03-29T08:53:03;3.85;;;2.10;;
62880;SDS011;48969;49.934;8.596;2024-03-29T08:55:32;3.42;;;2.25;;
62880;SDS011;48969;49.934;8.596;2024-03-29T08:57:57;3.35;;;2.33;;
62880;SDS011;48969;49.934;8.596;2024-03-29T09:00:23;4.65;;;2.78;;
62880;SDS011;48969;49.934;8.596;2024-03-29T09:02:49;3.90;;;2.92;;
62880;SDS011;48969;49.934;8.596;2024-03-29T09:05:14;4.40;;;2.90;;
62880;SDS011;48969;49.934;8.596;2024-03-29T09:07:39;4.53;;;2.60;;
62880;SDS011;48969;49.934;8.596;2024-03-29T09:10:06;4.15;;;2.40;;
62880;SDS011;48969;49.934;8.596;2024-03-29T09:12:31;0.35;;;0.28;;
62880;SDS011;48969;49.934;8.596;2024-03-29T09:14:56;3.92;;;2.40;;
62880;SDS011;48969;49.934;8.596;2024-03-29T09:17:21;0.35;;;0.35;;
62880;SDS011;48969;49.934;8.596;2024-03-29T09:19:49;6.70;;;2.97;;
62880;SDS011;48969;49.934;8.596;2024-03-29T09:22:16;5.57;;;2.75;;
62880;SDS011;48969;49.934;8.596;2024-03-29T09:24:41;3.58;;;2.63;;
62880;SDS011;48969;49.934;8.596;2024-03-29T09:27:06;5.32;;;3.10;;
62880;SDS011;48969;49.934;8.596;2024-03-29T09:29:32;4.80;;;2.88;;
62880;SDS011;48969;49.934;8.596;2024-03-29T09:31:57;6.00;;;3.00;;
62880;SDS011;48969;49.934;8.596;2024-03-29T09:34:22;0.63;;;0.63;;
62880;SDS011;48969;49.934;8.596;2024-03-29T09:36:48;6.20;;;3.03;;
62880;SDS011;48969;49.934;8.596;2024-03-29T09:39:13;6.93;;;3.20;;
62880;SDS011;48969;49.934;8.596;2024-03-29T09:41:38;4.97;;;2.83;;
62880;SDS011;48969;49.934;8.596;2024-03-29T09:44:09;4.45;;;2.80;;
62880;SDS011;48969;49.934;8.596;2024-03-29T09:46:36;6.82;;;3.30;;
62880;SDS011;48969;49.934;8.596;2024-03-29T09:49:04;5.97;;;2.80;;
62880;SDS011;48969;49.934;8.596;2024-03-29T09:51:31;4.03;;;2.55;;
62880;SDS011;48969;49.934;8.596;2024-03-29T09:53:56;5.00;;;3.03;;
62880;SDS011;48969;49.934;8.596;2024-03-29T09:56:22;5.05;;;3.08;;
62880;SDS011;48969;49.934;8.596;2024-03-29T09:58:47;5.47;;;3.33;;
62880;SDS011;48969;49.934;8.596;2024-03-29T10:01:12;5.25;;;3.63;;
62880;SDS011;48969;49.934;8.596;2024-03-29T10:03:41;5.15;;;2.90;;
62880;SDS011;48969;49.934;8.596;2024-03-29T10:06:07;4.93;;;2.72;;
62880;SDS011;48969;49.934;8.596;2024-03-29T10:08:33;3.50;;;2.75;;
62880;SDS011;48969;49.934;8.596;2024-03-29T10:10:58;3.80;;;1.93;;
62880;SDS011;48969;49.934;8.596;2024-03-29T10:13:24;1.00;;;1.00;;
62880;SDS011;48969;49.934;8.596;2024-03-29T10:15:52;0.25;;;0.25;;
62880;SDS011;48969;49.934;8.596;2024-03-29T10:18:20;2.15;;;1.45;;
62880;SDS011;48969;49.934;8.596;2024-03-29T10:20:46;2.42;;;1.30;;
62880;SDS011;48969;49.934;8.596;2024-03-29T10:23:11;2.42;;;1.67;;
62880;SDS011;48969;49.934;8.596;2024-03-29T10:25:36;2.17;;;1.10;;
62880;SDS011;48969;49.934;8.596;2024-03-29T10:28:02;4.23;;;1.57;;
62880;SDS011;48969;49.934;8.596;2024-03-29T10:30:27;3.72;;;1.35;;
62880;SDS011;48969;49.934;8.596;2024-03-29T10:32:54;1.38;;;0.40;;
62880;SDS011;48969;49.934;8.596;2024-03-29T10:35:20;2.28;;;1.40;;
62880;SDS011;48969;49.934;8.596;2024-03-29T10:37:45;0.90;;;0.20;;
62880;SDS011;48969;49.934;8.596;2024-03-29T10:40:10;2.55;;;1.40;;
62880;SDS011;48969;49.934;8.596;2024-03-29T10:42:39;0.20;;;0.20;;
62880;SDS011;48969;49.934;8.596;2024-03-29T10:45:07;1.85;;;1.50;;
62880;SDS011;48969;49.934;8.596;2024-03-29T10:47:33;0.30;;;0.30;;
62880;SDS011;48969;49.934;8.596;2024-03-29T10:49:58;2.53;;;1.77;;
62880;SDS011;48969;49.934;8.596;2024-03-29T10:52:24;2.95;;;1.70;;
62880;SDS011;48969;49.934;8.596;2024-03-29T10:54:50;3.40;;;1.77;;
62880;SDS011;48969;49.934;8.596;2024-03-29T10:57:22;0.80;;;0.57;;
62880;SDS011;48969;49.934;8.596;2024-03-29T10:59:52;4.68;;;1.73;;
62880;SDS011;48969;49.934;8.596;2024-03-29T11:02:28;4.43;;;1.83;;
62880;SDS011;48969;49.934;8.596;2024-03-29T11:04:53;0.50;;;0.50;;
62880;SDS011;48969;49.934;8.596;2024-03-29T11:07:19;3.53;;;2.05;;
62880;SDS011;48969;49.934;8.596;2024-03-29T11:09:47;3.03;;;1.63;;
62880;SDS011;48969;49.934;8.596;2024-03-29T11:12:14;0.20;;;0.20;;
62880;SDS011;48969;49.934;8.596;2024-03-29T11:14:43;5.43;;;2.28;;
62880;SDS011;48969;49.934;8.596;2024-03-29T11:17:10;0.30;;;0.30;;
62880;SDS011;48969;49.934;8.596;2024-03-29T11:19:37;3.22;;;1.70;;
62880;SDS011;48969;49.934;8.596;2024-03-29T11:22:03;7.05;;;2.80;;
62880;SDS011;48969;49.934;8.596;2024-03-29T11:24:28;5.38;;;2.15;;
62880;SDS011;48969;49.934;8.596;2024-03-29T11:26:54;2.28;;;1.80;;
62880;SDS011;48969;49.934;8.596;2024-03-29T11:29:19;3.33;;;1.88;;
62880;SDS011;48969;49.934;8.596;2024-03-29T11:31:46;3.85;;;2.53;;
62880;SDS011;48969;49.934;8.596;2024-03-29T11:34:12;3.00;;;1.90;;
62880;SDS011;48969;49.934;8.596;2024-03-29T11:36:38;1.60;;;1.27;;
62880;SDS011;48969;49.934;8.596;2024-03-29T11:39:04;2.55;;;1.33;;
62880;SDS011;48969;49.934;8.596;2024-03-29T11:41:29;1.60;;;1.40;;
62880;SDS011;48969;49.934;8.596;2024-03-29T11:43:57;1.73;;;1.20;;
62880;SDS011;48969;49.934;8.596;2024-03-29T11:46:22;2.30;;;1.25;;
62880;SDS011;48969;49.934;8.596;2024-03-29T11:48:48;2.28;;;1.48;;
62880;SDS011;48969;49.934;8.596;2024-03-29T11:51:20;2.63;;;1.33;;
62880;SDS011;48969;49.934;8.596;2024-03-29T11:53:49;2.47;;;1.27;;
62880;SDS011;48969;49.934;8.596;2024-03-29T11:56:18;2.50;;;1.33;;
62880;SDS011;48969;49.934;8.596;2024-03-29T11:58:43;1.70;;;1.23;;
62880;SDS011;48969;49.934;8.596;2024-03-29T12:01:09;3.60;;;1.90;;
62880;SDS011;48969;49.934;8.596;2024-03-29T12:03:37;3.13;;;1.70;;
62880;SDS011;48969;49.934;8.596;2024-03-29T12:06:03;2.42;;;1.80;;
62880;SDS011;48969;49.934;8.596;2024-03-29T12:08:29;2.83;;;1.63;;
62880;SDS011;48969;49.934;8.596;2024-03-29T12:10:55;2.45;;;1.85;;
62880;SDS011;48969;49.934;8.596;2024-03-29T12:13:20;3.28;;;2.05;;
62880;SDS011;48969;49.934;8.596;2024-03-29T12:15:46;5.68;;;2.03;;
62880;SDS011;48969;49.934;8.596;2024-03-29T12:18:11;4.25;;;1.95;;
62880;SDS011;48969;49.934;8.596;2024-03-29T12:20:37;2.90;;;1.85;;
62880;SDS011;48969;49.934;8.596;2024-03-29T12:23:03;2.10;;;1.83;;
62880;SDS011;48969;49.934;8.596;2024-03-29T12:25:29;2.03;;;1.65;;
62880;SDS011;48969;49.934;8.596;2024-03-29T12:27:55;2.92;;;2.05;;
62880;SDS011;48969;49.934;8.596;2024-03-29T12:30:20;1.35;;;1.25;;
62880;SDS011;48969;49.934;8.596;2024-03-29T12:32:45;4.18;;;2.28;;
62880;SDS011;48969;49.934;8.596;2024-03-29T12:35:11;4.05;;;2.25;;
62880;SDS011;48969;49.934;8.596;2024-03-29T12:37:37;2.80;;;2.40;;
62880;SDS011;48969;49.934;8.596;2024-03-29T12:40:04;5.28;;;2.50;;
62880;SDS011;48969;49.934;8.596;2024-03-29T12:42:36;4.93;;;2.75;;
62880;SDS011;48969;49.934;8.596;2024-03-29T12:45:02;3.58;;;2.45;;
62880;SDS011;48969;49.934;8.596;2024-03-29T12:47:28;4.50;;;2.50;;
62880;SDS011;48969;49.934;8.596;2024-03-29T12:49:53;3.35;;;2.70;;
62880;SDS011;48969;49.934;8.596;2024-03-29T12:52:20;3.60;;;2.42;;
62880;SDS011;48969;49.934;8.596;2024-03-29T12:54:46;4.63;;;2.42;;
62880;SDS011;48969;49.934;8.596;2024-03-29T12:57:11;4.15;;;2.60;;
62880;SDS011;48969;49.934;8.596;2024-03-29T12:59:36;5.30;;;2.63;;
62880;SDS011;48969;49.934;8.596;2024-03-29T13:02:01;3.80;;;2.53;;
62880;SDS011;48969;49.934;8.596;2024-03-29T13:04:29;3.63;;;2.70;;
62880;SDS011;48969;49.934;8.596;2024-03-29T13:06:54;4.28;;;2.60;;
62880;SDS011;48969;49.934;8.596;2024-03-29T13:09:20;4.57;;;2.58;;
62880;SDS011;48969;49.934;8.596;2024-03-29T13:11:48;5.55;;;3.45;;
62880;SDS011;48969;49.934;8.596;2024-03-29T13:14:13;1.17;;;0.57;;
62880;SDS011;48969;49.934;8.596;2024-03-29T13:16:38;4.40;;;2.60;;
62880;SDS011;48969;49.934;8.596;2024-03-29T13:19:04;4.05;;;2.30;;
62880;SDS011;48969;49.934;8.596;2024-03-29T13:21:29;3.28;;;2.08;;
62880;SDS011;48969;49.934;8.596;2024-03-29T13:23:56;3.15;;;2.15;;
62880;SDS011;48969;49.934;8.596;2024-03-29T13:26:21;3.90;;;2.03;;
62880;SDS011;48969;49.934;8.596;2024-03-29T13:28:46;3.83;;;2.10;;
62880;SDS011;48969;49.934;8.596;2024-03-29T13:31:11;6.97;;;2.17;;
62880;SDS011;48969;49.934;8.596;2024-03-29T13:33:37;2.83;;;1.70;;
62880;SDS011;48969;49.934;8.596;2024-03-29T13:36:03;2.55;;;2.20;;
62880;SDS011;48969;49.934;8.596;2024-03-29T13:38:28;3.15;;;1.90;;
62880;SDS011;48969;49.934;8.596;2024-03-29T13:40:54;1.02;;;0.68;;
62880;SDS011;48969;49.934;8.596;2024-03-29T13:43:21;3.45;;;1.83;;
62880;SDS011;48969;49.934;8.596;2024-03-29T13:45:47;2.83;;;2.13;;
62880;SDS011;48969;49.934;8.596;2024-03-29T13:48:13;2.47;;;2.00;;
62880;SDS011;48969;49.934;8.596;2024-03-29T13:50:38;2.92;;;1.98;;
62880;SDS011;48969;49.934;8.596;2024-03-29T13:53:04;2.70;;;1.98;;
62880;SDS011;48969;49.934;8.596;2024-03-29T13:55:29;1.73;;;1.63;;
62880;SDS011;48969;49.934;8.596;2024-03-29T13:57:54;2.65;;;1.88;;
62880;SDS011;48969;49.934;8.596;2024-03-29T14:00:24;2.97;;;1.85;;
62880;SDS011;48969;49.934;8.596;2024-03-29T14:02:49;2.97;;;2.20;;
62880;SDS011;48969;49.934;8.596;2024-03-29T14:05:14;3.22;;;2.10;;
62880;SDS011;48969;49.934;8.596;2024-03-29T14:07:39;2.38;;;1.75;;
62880;SDS011;48969;49.934;8.596;2024-03-29T14:10:05;2.20;;;1.80;;
62880;SDS011;48969;49.934;8.596;2024-03-29T14:12:31;4.18;;;2.35;;
62880;SDS011;48969;49.934;8.596;2024-03-29T14:14:57;5.53;;;2.97;;
62880;SDS011;48969;49.934;8.596;2024-03-29T14:17:22;8.30;;;3.63;;
62880;SDS011;48969;49.934;8.596;2024-03-29T14:19:47;6.90;;;3.40;;
62880;SDS011;48969;49.934;8.596;2024-03-29T14:22:14;3.95;;;2.40;;
62880;SDS011;48969;49.934;8.596;2024-03-29T14:24:45;3.35;;;2.42;;
62880;SDS011;48969;49.934;8.596;2024-03-29T14:27:10;3.90;;;2.75;;
62880;SDS011;48969;49.934;8.596;2024-03-29T14:29:37;3.95;;;2.78;;
62880;SDS011;48969;49.934;8.596;2024-03-29T14:32:03;5.15;;;2.67;;
62880;SDS011;48969;49.934;8.596;2024-03-29T14:34:28;4.85;;;3.22;;
62880;SDS011;48969;49.934;8.596;2024-03-29T14:36:56;4.63;;;2.88;;
62880;SDS011;48969;49.934;8.596;2024-03-29T14:39:22;4.78;;;2.50;;
62880;SDS011;48969;49.934;8.596;2024-03-29T14:41:47;4.73;;;2.60;;
62880;SDS011;48969;49.934;8.596;2024-03-29T14:44:14;3.92;;;2.40;;